sensor_id;sensor_type;location;lat;lon;timestamp;pressure;altitude;pressure_sealevel;temperature;humidity
75543;BME280;64129;53.508;10.476;2023-02-19T00:01:11;100998.22;;;4.26;87.66
75543;BME280;64129;53.508;10.476;2023-02-19T00:03:38;101007.00;;;4.30;86.99
75543;BME280;64129;53.508;10.476;2023-02-19T00:06:08;100999.97;;;4.23;87.41
75543;BME280;64129;53.508;10.476;2023-02-19T00:08:36;100994.66;;;4.17;87.42
75543;BME280;64129;53.508;10.476;2023-02-19T00:11:08;100999.94;;;4.20;87.67
75543;BME280;64129;53.508;10.476;2023-02-19T00:13:38;101003.47;;;4.22;87.49
75543;BME280;64129;53.508;10.476;2023-02-19T00:16:21;101003.50;;;4.31;87.72
75543;BME280;64129;53.508;10.476;2023-02-19T00:18:49;101000.91;;;4.35;87.66
75543;BME280;64129;53.508;10.476;2023-02-19T00:21:17;101000.75;;;4.16;87.12
75543;BME280;64129;53.508;10.476;2023-02-19T00:23:50;100999.97;;;4.26;87.39
75543;BME280;64129;53.508;10.476;2023-02-19T00:26:18;101000.00;;;4.32;87.67
75543;BME280;64129;53.508;10.476;2023-02-19T00:28:48;100995.63;;;4.31;87.51
75543;BME280;64129;53.508;10.476;2023-02-19T00:33:48;100993.91;;;4.39;86.77
75543;BME280;64129;53.508;10.476;2023-02-19T00:36:16;100989.53;;;4.41;87.22
75543;BME280;64129;53.508;10.476;2023-02-19T00:38:44;100986.91;;;4.39;86.93
75543;BME280;64129;53.508;10.476;2023-02-19T00:41:12;100989.56;;;4.47;86.70
75543;BME280;64129;53.508;10.476;2023-02-19T00:43:52;100993.06;;;4.46;87.03
75543;BME280;64129;53.508;10.476;2023-02-19T00:46:20;100986.00;;;4.36;86.94
75543;BME280;64129;53.508;10.476;2023-02-19T00:48:47;100982.50;;;4.40;87.20
75543;BME280;64129;53.508;10.476;2023-02-19T00:51:14;100986.03;;;4.42;87.38
75543;BME280;64129;53.508;10.476;2023-02-19T00:53:41;100981.66;;;4.47;86.89
75543;BME280;64129;53.508;10.476;2023-02-19T00:56:08;100986.91;;;4.43;87.14
75543;BME280;64129;53.508;10.476;2023-02-19T00:58:35;100995.56;;;4.22;87.75
75543;BME280;64129;53.508;10.476;2023-02-19T01:01:02;100991.25;;;4.36;87.87
75543;BME280;64129;53.508;10.476;2023-02-19T01:03:28;100988.66;;;4.42;87.10
75543;BME280;64129;53.508;10.476;2023-02-19T01:05:55;100999.19;;;4.45;87.34
75543;BME280;64129;53.508;10.476;2023-02-19T01:08:21;101000.06;;;4.47;87.31
75543;BME280;64129;53.508;10.476;2023-02-19T01:10:48;100995.66;;;4.40;87.47
75543;BME280;64129;53.508;10.476;2023-02-19T01:13:15;100999.16;;;4.41;87.14
75543;BME280;64129;53.508;10.476;2023-02-19T01:15:42;100996.56;;;4.45;87.26
75543;BME280;64129;53.508;10.476;2023-02-19T01:18:09;101005.31;;;4.41;86.97
75543;BME280;64129;53.508;10.476;2023-02-19T01:20:41;101003.56;;;4.45;87.02
75543;BME280;64129;53.508;10.476;2023-02-19T01:23:10;101000.06;;;4.47;86.90
75543;BME280;64129;53.508;10.476;2023-02-19T01:25:41;101013.22;;;4.43;87.36
75543;BME280;64129;53.508;10.476;2023-02-19T01:28:08;101002.72;;;4.49;87.44
75543;BME280;64129;53.508;10.476;2023-02-19T01:30:36;101000.94;;;4.43;87.57
75543;BME280;64129;53.508;10.476;2023-02-19T01:33:04;101009.69;;;4.42;87.59
75543;BME280;64129;53.508;10.476;2023-02-19T01:35:31;101004.44;;;4.41;87.28
75543;BME280;64129;53.508;10.476;2023-02-19T01:37:57;101011.47;;;4.46;87.75
75543;BME280;64129;53.508;10.476;2023-02-19T01:40:24;101013.28;;;4.53;87.16
75543;BME280;64129;53.508;10.476;2023-02-19T01:42:51;101012.31;;;4.39;87.62
75543;BME280;64129;53.508;10.476;2023-02-19T01:45:26;101014.06;;;4.37;88.07
75543;BME280;64129;53.508;10.476;2023-02-19T01:47:57;101014.91;;;4.31;88.09
75543;BME280;64129;53.508;10.476;2023-02-19T01:50:28;101011.41;;;4.35;87.68
75543;BME280;64129;53.508;10.476;2023-02-19T01:52:58;101005.13;;;4.14;88.42
75543;BME280;64129;53.508;10.476;2023-02-19T01:55:30;101005.09;;;4.11;88.10
75543;BME280;64129;53.508;10.476;2023-02-19T01:57:59;101012.03;;;3.99;88.51
75543;BME280;64129;53.508;10.476;2023-02-19T02:00:26;101012.97;;;4.06;88.74
75543;BME280;64129;53.508;10.476;2023-02-19T02:02:55;101005.06;;;4.01;88.07
75543;BME280;64129;53.508;10.476;2023-02-19T02:08:08;101001.47;;;3.90;88.15
75543;BME280;64129;53.508;10.476;2023-02-19T02:10:54;101004.16;;;3.96;88.81
75543;BME280;64129;53.508;10.476;2023-02-19T02:13:21;101008.34;;;3.76;88.46
75543;BME280;64129;53.508;10.476;2023-02-19T02:16:21;101006.72;;;3.90;88.22
75543;BME280;64129;53.508;10.476;2023-02-19T02:21:34;100998.88;;;3.95;87.73
75543;BME280;64129;53.508;10.476;2023-02-19T02:27:11;101007.63;;;3.92;89.03
75543;BME280;64129;53.508;10.476;2023-02-19T02:32:35;100999.47;;;3.59;88.65
75543;BME280;64129;53.508;10.476;2023-02-19T02:35:10;101000.47;;;3.76;88.09
75543;BME280;64129;53.508;10.476;2023-02-19T02:37:41;101001.44;;;3.84;88.12
75543;BME280;64129;53.508;10.476;2023-02-19T02:40:10;100998.81;;;3.84;88.35
75543;BME280;64129;53.508;10.476;2023-02-19T02:42:38;101003.19;;;3.85;87.99
75543;BME280;64129;53.508;10.476;2023-02-19T02:45:26;101012.72;;;3.74;87.91
75543;BME280;64129;53.508;10.476;2023-02-19T02:48:26;101008.94;;;3.44;88.77
75543;BME280;64129;53.508;10.476;2023-02-19T02:50:58;101014.09;;;3.35;89.07
75543;BME280;64129;53.508;10.476;2023-02-19T02:53:33;101018.69;;;3.55;88.62
75543;BME280;64129;53.508;10.476;2023-02-19T02:56:20;101020.53;;;3.68;87.97
75543;BME280;64129;53.508;10.476;2023-02-19T02:58:48;101014.91;;;3.27;88.44
75543;BME280;64129;53.508;10.476;2023-02-19T03:01:23;101017.69;;;3.45;88.74
75543;BME280;64129;53.508;10.476;2023-02-19T03:04:14;101010.53;;;3.27;88.64
75543;BME280;64129;53.508;10.476;2023-02-19T03:06:46;101012.44;;;3.47;88.21
75543;BME280;64129;53.508;10.476;2023-02-19T03:09:19;101010.66;;;3.42;87.80
75543;BME280;64129;53.508;10.476;2023-02-19T03:11:49;101011.66;;;3.51;87.78
75543;BME280;64129;53.508;10.476;2023-02-19T03:14:42;101003.81;;;3.55;87.51
75543;BME280;64129;53.508;10.476;2023-02-19T03:17:38;101006.44;;;3.55;87.48
75543;BME280;64129;53.508;10.476;2023-02-19T03:20:26;101011.72;;;3.60;87.42
75543;BME280;64129;53.508;10.476;2023-02-19T03:22:54;101003.97;;;3.75;87.04
75543;BME280;64129;53.508;10.476;2023-02-19T03:25:27;101010.06;;;3.71;87.06
75543;BME280;64129;53.508;10.476;2023-02-19T03:28:22;101017.97;;;3.75;86.71
75543;BME280;64129;53.508;10.476;2023-02-19T03:31:13;101021.44;;;3.71;86.47
75543;BME280;64129;53.508;10.476;2023-02-19T03:33:42;101014.41;;;3.66;87.12
75543;BME280;64129;53.508;10.476;2023-02-19T03:36:11;101016.97;;;3.60;86.85
75543;BME280;64129;53.508;10.476;2023-02-19T03:38:47;101013.56;;;3.70;87.08
75543;BME280;64129;53.508;10.476;2023-02-19T03:41:35;101018.88;;;3.79;86.83
75543;BME280;64129;53.508;10.476;2023-02-19T03:44:37;101030.19;;;3.72;86.50
75543;BME280;64129;53.508;10.476;2023-02-19T03:47:28;101027.59;;;3.75;86.10
75543;BME280;64129;53.508;10.476;2023-02-19T03:50:16;101038.16;;;3.80;85.97
75543;BME280;64129;53.508;10.476;2023-02-19T03:55:29;101039.88;;;3.76;86.01
75543;BME280;64129;53.508;10.476;2023-02-19T03:58:05;101039.81;;;3.71;86.29
75543;BME280;64129;53.508;10.476;2023-02-19T04:00:42;101038.09;;;3.72;86.60
75543;BME280;64129;53.508;10.476;2023-02-19T04:05:58;101050.41;;;3.79;86.28
75543;BME280;64129;53.508;10.476;2023-02-19T04:08:27;101045.13;;;3.78;85.93
75543;BME280;64129;53.508;10.476;2023-02-19T04:11:01;101048.63;;;3.78;85.72
75543;BME280;64129;53.508;10.476;2023-02-19T04:13:35;101049.53;;;3.80;85.64
75543;BME280;64129;53.508;10.476;2023-02-19T04:16:07;101050.31;;;3.68;86.57
75543;BME280;64129;53.508;10.476;2023-02-19T04:18:39;101055.63;;;3.76;86.44
75543;BME280;64129;53.508;10.476;2023-02-19T04:21:07;101060.00;;;3.77;85.81
75543;BME280;64129;53.508;10.476;2023-02-19T04:23:37;101057.38;;;3.77;86.27
75543;BME280;64129;53.508;10.476;2023-02-19T04:26:05;101066.16;;;3.78;86.07
75543;BME280;64129;53.508;10.476;2023-02-19T04:28:33;101063.50;;;3.74;86.34
75543;BME280;64129;53.508;10.476;2023-02-19T04:31:00;101075.72;;;3.71;86.66
75543;BME280;64129;53.508;10.476;2023-02-19T04:33:27;101080.13;;;3.73;86.51
75543;BME280;64129;53.508;10.476;2023-02-19T04:35:53;101068.72;;;3.71;86.73
75543;BME280;64129;53.508;10.476;2023-02-19T04:38:20;101069.63;;;3.76;86.09
75543;BME280;64129;53.508;10.476;2023-02-19T04:40:46;101073.06;;;3.68;86.38
75543;BME280;64129;53.508;10.476;2023-02-19T04:43:14;101072.22;;;3.72;86.45
75543;BME280;64129;53.508;10.476;2023-02-19T04:45:40;101074.81;;;3.66;86.31
75543;BME280;64129;53.508;10.476;2023-02-19T04:48:07;101080.03;;;3.63;86.21
75543;BME280;64129;53.508;10.476;2023-02-19T04:50:36;101078.19;;;3.53;86.41
75543;BME280;64129;53.508;10.476;2023-02-19T04:53:03;101082.53;;;3.51;86.45
75543;BME280;64129;53.508;10.476;2023-02-19T04:55:30;101100.97;;;3.57;86.44
75543;BME280;64129;53.508;10.476;2023-02-19T04:57:56;101099.19;;;3.53;86.17
75543;BME280;64129;53.508;10.476;2023-02-19T05:00:23;101106.00;;;3.38;86.32
75543;BME280;64129;53.508;10.476;2023-02-19T05:02:49;101109.41;;;3.28;86.49
75543;BME280;64129;53.508;10.476;2023-02-19T05:05:16;101112.16;;;3.42;86.28
75543;BME280;64129;53.508;10.476;2023-02-19T05:07:42;101116.50;;;3.38;86.39
75543;BME280;64129;53.508;10.476;2023-02-19T05:10:09;101108.63;;;3.38;86.09
75543;BME280;64129;53.508;10.476;2023-02-19T05:12:35;101111.19;;;3.32;85.78
75543;BME280;64129;53.508;10.476;2023-02-19T05:15:02;101111.19;;;3.32;86.28
75543;BME280;64129;53.508;10.476;2023-02-19T05:17:28;101118.22;;;3.36;85.98
75543;BME280;64129;53.508;10.476;2023-02-19T05:19:57;101123.44;;;3.33;86.26
75543;BME280;64129;53.508;10.476;2023-02-19T05:22:24;101126.97;;;3.35;86.19
75543;BME280;64129;53.508;10.476;2023-02-19T05:24:50;101121.56;;;3.20;86.41
75543;BME280;64129;53.508;10.476;2023-02-19T05:27:16;101125.88;;;3.15;86.50
75543;BME280;64129;53.508;10.476;2023-02-19T05:29:43;101121.59;;;3.23;86.76
75543;BME280;64129;53.508;10.476;2023-02-19T05:32:09;101136.38;;;3.17;86.33
75543;BME280;64129;53.508;10.476;2023-02-19T05:34:36;101136.38;;;3.17;86.35
75543;BME280;64129;53.508;10.476;2023-02-19T05:37:02;101140.81;;;3.21;85.71
75543;BME280;64129;53.508;10.476;2023-02-19T05:39:29;101143.22;;;3.05;86.27
75543;BME280;64129;53.508;10.476;2023-02-19T05:41:55;101144.00;;;3.00;86.37
75543;BME280;64129;53.508;10.476;2023-02-19T05:44:22;101143.16;;;3.01;85.82
75543;BME280;64129;53.508;10.476;2023-02-19T05:46:48;101149.25;;;3.00;85.84
75543;BME280;64129;53.508;10.476;2023-02-19T05:49:15;101151.78;;;2.92;86.05
75543;BME280;64129;53.508;10.476;2023-02-19T05:51:41;101146.56;;;2.94;85.67
75543;BME280;64129;53.508;10.476;2023-02-19T05:54:08;101151.53;;;2.75;85.78
75543;BME280;64129;53.508;10.476;2023-02-19T05:56:39;101159.59;;;2.88;85.77
75543;BME280;64129;53.508;10.476;2023-02-19T06:01:44;101170.47;;;2.56;86.55
75543;BME280;64129;53.508;10.476;2023-02-19T06:04:12;101170.69;;;2.71;85.96
75543;BME280;64129;53.508;10.476;2023-02-19T06:06:40;101175.00;;;2.66;86.16
75543;BME280;64129;53.508;10.476;2023-02-19T06:09:07;101175.88;;;2.67;85.79
75543;BME280;64129;53.508;10.476;2023-02-19T06:11:34;101180.19;;;2.63;85.53
75543;BME280;64129;53.508;10.476;2023-02-19T06:14:01;101195.94;;;2.65;85.92
75543;BME280;64129;53.508;10.476;2023-02-19T06:16:28;101190.69;;;2.63;85.62
75543;BME280;64129;53.508;10.476;2023-02-19T06:18:55;101195.78;;;2.54;85.58
75543;BME280;64129;53.508;10.476;2023-02-19T06:21:21;101205.00;;;2.31;86.64
75543;BME280;64129;53.508;10.476;2023-02-19T06:23:48;101211.25;;;2.39;87.20
75543;BME280;64129;53.508;10.476;2023-02-19T06:26:20;101227.91;;;2.42;86.39
75543;BME280;64129;53.508;10.476;2023-02-19T06:28:49;101230.38;;;2.35;86.28
75543;BME280;64129;53.508;10.476;2023-02-19T06:31:16;101223.34;;;2.32;87.01
75543;BME280;64129;53.508;10.476;2023-02-19T06:33:44;101236.19;;;2.17;87.64
75543;BME280;64129;53.508;10.476;2023-02-19T06:36:15;101240.78;;;2.30;87.72
75543;BME280;64129;53.508;10.476;2023-02-19T06:38:43;101248.44;;;2.18;88.11
75543;BME280;64129;53.508;10.476;2023-02-19T06:41:10;101241.44;;;2.17;87.62
75543;BME280;64129;53.508;10.476;2023-02-19T06:43:38;101252.19;;;2.32;87.71
75543;BME280;64129;53.508;10.476;2023-02-19T06:46:06;101256.41;;;2.24;87.60
75543;BME280;64129;53.508;10.476;2023-02-19T06:48:33;101260.84;;;2.28;88.01
75543;BME280;64129;53.508;10.476;2023-02-19T06:51:00;101274.03;;;2.33;87.88
75543;BME280;64129;53.508;10.476;2023-02-19T06:53:27;101275.66;;;2.26;88.57
75543;BME280;64129;53.508;10.476;2023-02-19T06:55:58;101282.81;;;2.35;88.50
75543;BME280;64129;53.508;10.476;2023-02-19T06:58:25;101287.03;;;2.27;88.73
75543;BME280;64129;53.508;10.476;2023-02-19T07:00:52;101285.47;;;2.38;88.15
75543;BME280;64129;53.508;10.476;2023-02-19T07:03:19;101298.53;;;2.35;88.43
75543;BME280;64129;53.508;10.476;2023-02-19T07:05:46;101306.53;;;2.42;88.04
75543;BME280;64129;53.508;10.476;2023-02-19T07:08:12;101311.72;;;2.39;88.37
75543;BME280;64129;53.508;10.476;2023-02-19T07:10:39;101312.53;;;2.37;88.40
75543;BME280;64129;53.508;10.476;2023-02-19T07:13:06;101321.47;;;2.45;88.39
75543;BME280;64129;53.508;10.476;2023-02-19T07:15:32;101317.84;;;2.40;89.01
75543;BME280;64129;53.508;10.476;2023-02-19T07:17:59;101321.44;;;2.43;89.00
75543;BME280;64129;53.508;10.476;2023-02-19T07:20:25;101318.72;;;2.40;89.12
75543;BME280;64129;53.508;10.476;2023-02-19T07:22:52;101331.94;;;2.45;88.80
75543;BME280;64129;53.508;10.476;2023-02-19T07:25:18;101332.91;;;2.50;89.04
75543;BME280;64129;53.508;10.476;2023-02-19T07:27:45;101342.47;;;2.46;88.81
75543;BME280;64129;53.508;10.476;2023-02-19T07:30:11;101347.59;;;2.42;88.98
75543;BME280;64129;53.508;10.476;2023-02-19T07:32:41;101341.75;;;2.55;89.49
75543;BME280;64129;53.508;10.476;2023-02-19T07:35:08;101349.66;;;2.58;88.76
75543;BME280;64129;53.508;10.476;2023-02-19T07:37:34;101355.06;;;2.67;88.50
75543;BME280;64129;53.508;10.476;2023-02-19T07:40:01;101357.59;;;2.63;89.19
75543;BME280;64129;53.508;10.476;2023-02-19T07:42:28;101355.06;;;2.67;88.92
75543;BME280;64129;53.508;10.476;2023-02-19T07:44:55;101363.19;;;2.79;88.59
75543;BME280;64129;53.508;10.476;2023-02-19T07:47:23;101374.53;;;2.78;88.67
75543;BME280;64129;53.508;10.476;2023-02-19T07:49:49;101375.63;;;2.93;89.35
75543;BME280;64129;53.508;10.476;2023-02-19T07:52:16;101381.19;;;3.64;88.76
75543;BME280;64129;53.508;10.476;2023-02-19T07:54:42;101380.56;;;3.24;88.10
75543;BME280;64129;53.508;10.476;2023-02-19T07:57:08;101389.03;;;3.09;89.43
75543;BME280;64129;53.508;10.476;2023-02-19T07:59:35;101386.56;;;3.17;88.49
75543;BME280;64129;53.508;10.476;2023-02-19T08:02:01;101377.13;;;3.28;88.39
75543;BME280;64129;53.508;10.476;2023-02-19T08:04:46;101397.59;;;3.49;88.57
75543;BME280;64129;53.508;10.476;2023-02-19T08:07:13;101406.41;;;3.53;88.84
75543;BME280;64129;53.508;10.476;2023-02-19T08:09:40;101401.44;;;3.72;87.17
75543;BME280;64129;53.508;10.476;2023-02-19T08:12:08;101411.78;;;3.62;87.83
75543;BME280;64129;53.508;10.476;2023-02-19T08:14:55;101412.69;;;3.64;87.79
75543;BME280;64129;53.508;10.476;2023-02-19T08:17:22;101429.72;;;3.89;88.74
75543;BME280;64129;53.508;10.476;2023-02-19T08:19:48;101409.88;;;4.11;88.22
75543;BME280;64129;53.508;10.476;2023-02-19T08:22:15;101426.28;;;3.94;87.80
75543;BME280;64129;53.508;10.476;2023-02-19T08:24:41;101413.13;;;3.91;87.14
75543;BME280;64129;53.508;10.476;2023-02-19T08:27:10;101431.47;;;3.90;86.87
75543;BME280;64129;53.508;10.476;2023-02-19T08:29:36;101418.13;;;3.76;87.47
75543;BME280;64129;53.508;10.476;2023-02-19T08:32:03;101435.59;;;3.74;87.06
75543;BME280;64129;53.508;10.476;2023-02-19T08:34:29;101431.66;;;4.02;86.75
75543;BME280;64129;53.508;10.476;2023-02-19T08:36:56;101429.31;;;4.22;86.16
75543;BME280;64129;53.508;10.476;2023-02-19T08:39:22;101431.28;;;4.41;87.11
75543;BME280;64129;53.508;10.476;2023-02-19T08:41:49;101431.56;;;4.62;86.40
75543;BME280;64129;53.508;10.476;2023-02-19T08:44:16;101436.19;;;4.83;85.77
75543;BME280;64129;53.508;10.476;2023-02-19T08:46:42;101440.72;;;4.95;85.21
75543;BME280;64129;53.508;10.476;2023-02-19T08:49:09;101440.84;;;5.10;84.95
75543;BME280;64129;53.508;10.476;2023-02-19T08:51:35;101436.38;;;5.01;84.27
75543;BME280;64129;53.508;10.476;2023-02-19T08:54:02;101441.03;;;5.28;84.13
75543;BME280;64129;53.508;10.476;2023-02-19T08:56:29;101454.22;;;5.28;83.53
75543;BME280;64129;53.508;10.476;2023-02-19T08:58:56;101453.53;;;5.52;83.09
75543;BME280;64129;53.508;10.476;2023-02-19T09:01:22;101468.53;;;5.56;82.28
75543;BME280;64129;53.508;10.476;2023-02-19T09:03:49;101481.81;;;5.73;82.27
75543;BME280;64129;53.508;10.476;2023-02-19T09:06:17;101478.56;;;6.05;81.63
75543;BME280;64129;53.508;10.476;2023-02-19T09:08:45;101484.81;;;6.20;80.38
75543;BME280;64129;53.508;10.476;2023-02-19T09:11:11;101488.34;;;6.21;79.74
75543;BME280;64129;53.508;10.476;2023-02-19T09:13:38;101491.97;;;6.34;80.13
75543;BME280;64129;53.508;10.476;2023-02-19T09:16:05;101488.94;;;5.86;77.84
75543;BME280;64129;53.508;10.476;2023-02-19T09:18:32;101501.66;;;6.42;78.55
75543;BME280;64129;53.508;10.476;2023-02-19T09:21:03;101507.13;;;6.79;78.11
75543;BME280;64129;53.508;10.476;2023-02-19T09:23:34;101510.69;;;6.87;76.80
75543;BME280;64129;53.508;10.476;2023-02-19T09:26:04;101524.59;;;6.52;75.63
75543;BME280;64129;53.508;10.476;2023-02-19T09:28:32;101511.56;;;6.94;77.17
75543;BME280;64129;53.508;10.476;2023-02-19T09:31:06;101524.78;;;6.91;76.95
75543;BME280;64129;53.508;10.476;2023-02-19T09:33:33;101529.28;;;7.24;75.79
75543;BME280;64129;53.508;10.476;2023-02-19T09:36:00;101534.66;;;7.59;75.77
75543;BME280;64129;53.508;10.476;2023-02-19T09:38:27;101535.41;;;7.04;73.32
75543;BME280;64129;53.508;10.476;2023-02-19T09:40:56;101530.22;;;7.29;75.04
75543;BME280;64129;53.508;10.476;2023-02-19T09:43:25;101540.81;;;7.56;74.49
75543;BME280;64129;53.508;10.476;2023-02-19T09:46:01;101532.03;;;7.69;74.71
75543;BME280;64129;53.508;10.476;2023-02-19T09:48:28;101534.69;;;7.66;73.02
75543;BME280;64129;53.508;10.476;2023-02-19T09:50:56;101528.50;;;8.10;73.14
75543;BME280;64129;53.508;10.476;2023-02-19T09:53:28;101535.56;;;8.02;71.55
75543;BME280;64129;53.508;10.476;2023-02-19T09:55:59;101552.31;;;8.42;72.17
75543;BME280;64129;53.508;10.476;2023-02-19T09:58:34;101548.81;;;8.06;68.92
75543;BME280;64129;53.508;10.476;2023-02-19T10:01:03;101558.41;;;8.79;69.17
75543;BME280;64129;53.508;10.476;2023-02-19T10:03:34;101553.91;;;8.98;67.08
75543;BME280;64129;53.508;10.476;2023-02-19T10:06:05;101549.66;;;8.19;70.61
75543;BME280;64129;53.508;10.476;2023-02-19T10:08:36;101554.97;;;8.13;67.79
75543;BME280;64129;53.508;10.476;2023-02-19T10:11:04;101554.91;;;8.74;67.75
75543;BME280;64129;53.508;10.476;2023-02-19T10:13:36;101563.63;;;8.97;67.58
75543;BME280;64129;53.508;10.476;2023-02-19T10:16:11;101578.56;;;9.20;66.81
75543;BME280;64129;53.508;10.476;2023-02-19T10:18:42;101581.31;;;8.92;67.16
75543;BME280;64129;53.508;10.476;2023-02-19T10:21:13;101598.97;;;8.90;67.39
75543;BME280;64129;53.508;10.476;2023-02-19T10:23:42;101597.28;;;8.59;66.96
75543;BME280;64129;53.508;10.476;2023-02-19T10:26:09;101606.91;;;9.05;67.55
75543;BME280;64129;53.508;10.476;2023-02-19T10:28:36;101607.44;;;9.75;65.81
75543;BME280;64129;53.508;10.476;2023-02-19T10:31:10;101613.66;;;9.69;65.30
75543;BME280;64129;53.508;10.476;2023-02-19T10:33:49;101619.84;;;9.73;63.25
75543;BME280;64129;53.508;10.476;2023-02-19T10:36:30;101622.78;;;9.09;61.29
75543;BME280;64129;53.508;10.476;2023-02-19T10:38:59;101623.09;;;11.77;61.48
75543;BME280;64129;53.508;10.476;2023-02-19T10:41:27;101631.94;;;10.16;56.58
75543;BME280;64129;53.508;10.476;2023-02-19T10:46:44;101627.25;;;8.91;59.65
75543;BME280;64129;53.508;10.476;2023-02-19T10:51:46;101626.34;;;9.03;63.68
75543;BME280;64129;53.508;10.476;2023-02-19T10:54:16;101637.91;;;8.46;61.50
75543;BME280;64129;53.508;10.476;2023-02-19T10:56:44;101636.88;;;9.15;60.62
75543;BME280;64129;53.508;10.476;2023-02-19T10:59:25;101639.56;;;9.14;59.33
75543;BME280;64129;53.508;10.476;2023-02-19T11:02:02;101633.09;;;9.76;59.41
75543;BME280;64129;53.508;10.476;2023-02-19T11:04:31;101625.84;;;9.99;60.96
75543;BME280;64129;53.508;10.476;2023-02-19T11:07:12;101636.50;;;9.94;59.77
75543;BME280;64129;53.508;10.476;2023-02-19T11:09:42;101652.44;;;9.90;55.82
75543;BME280;64129;53.508;10.476;2023-02-19T11:12:12;101655.88;;;10.10;55.81
75543;BME280;64129;53.508;10.476;2023-02-19T11:14:43;101670.88;;;10.13;56.00
75543;BME280;64129;53.508;10.476;2023-02-19T11:19:50;101667.31;;;10.18;55.32
75543;BME280;64129;53.508;10.476;2023-02-19T11:22:28;101662.53;;;9.12;55.60
75543;BME280;64129;53.508;10.476;2023-02-19T11:25:03;101656.53;;;10.44;55.00
75543;BME280;64129;53.508;10.476;2023-02-19T11:27:30;101658.19;;;10.54;53.38
75543;BME280;64129;53.508;10.476;2023-02-19T11:30:22;101666.91;;;10.70;51.73
75543;BME280;64129;53.508;10.476;2023-02-19T11:35:53;101645.44;;;10.91;51.17
75543;BME280;64129;53.508;10.476;2023-02-19T11:38:20;101642.31;;;10.50;53.75
75543;BME280;64129;53.508;10.476;2023-02-19T11:41:07;101655.81;;;11.16;51.40
75543;BME280;64129;53.508;10.476;2023-02-19T11:43:56;101654.28;;;10.93;53.59
75543;BME280;64129;53.508;10.476;2023-02-19T11:46:35;101648.91;;;11.00;47.46
75543;BME280;64129;53.508;10.476;2023-02-19T11:49:20;101653.38;;;11.70;49.77
75543;BME280;64129;53.508;10.476;2023-02-19T11:54:43;101671.13;;;11.68;48.24
75543;BME280;64129;53.508;10.476;2023-02-19T12:02:58;101678.13;;;11.01;46.42
75543;BME280;64129;53.508;10.476;2023-02-19T12:09:02;101668.75;;;12.68;44.94
75543;BME280;64129;53.508;10.476;2023-02-19T12:14:43;101669.59;;;12.17;44.67
75543;BME280;64129;53.508;10.476;2023-02-19T12:20:09;101679.59;;;12.57;42.37
75543;BME280;64129;53.508;10.476;2023-02-19T12:22:49;101679.13;;;10.89;44.92
75543;BME280;64129;53.508;10.476;2023-02-19T12:36:30;101692.03;;;13.07;45.11
75543;BME280;64129;53.508;10.476;2023-02-19T12:41:43;101704.78;;;12.92;42.29
75543;BME280;64129;53.508;10.476;2023-02-19T12:44:18;101696.38;;;13.13;45.85
75543;BME280;64129;53.508;10.476;2023-02-19T12:46:55;101698.06;;;13.65;40.00
75543;BME280;64129;53.508;10.476;2023-02-19T12:49:30;101700.81;;;12.05;43.85
75543;BME280;64129;53.508;10.476;2023-02-19T12:52:02;101705.28;;;12.61;40.35
75543;BME280;64129;53.508;10.476;2023-02-19T12:54:42;101703.56;;;13.09;41.85
75543;BME280;64129;53.508;10.476;2023-02-19T12:57:13;101702.72;;;11.97;43.17
75543;BME280;64129;53.508;10.476;2023-02-19T12:59:52;101696.44;;;12.59;43.94
75543;BME280;64129;53.508;10.476;2023-02-19T13:02:37;101706.59;;;12.36;43.74
75543;BME280;64129;53.508;10.476;2023-02-19T13:05:37;101706.41;;;11.88;41.95
75543;BME280;64129;53.508;10.476;2023-02-19T13:08:14;101696.59;;;12.50;42.83
75543;BME280;64129;53.508;10.476;2023-02-19T13:10:53;101697.81;;;12.85;43.31
75543;BME280;64129;53.508;10.476;2023-02-19T13:13:49;101689.44;;;13.03;40.83
75543;BME280;64129;53.508;10.476;2023-02-19T13:16:19;101690.44;;;11.88;42.09
75543;BME280;64129;53.508;10.476;2023-02-19T13:18:55;101688.66;;;12.98;41.21
75543;BME280;64129;53.508;10.476;2023-02-19T13:21:27;101685.09;;;13.88;39.12
75543;BME280;64129;53.508;10.476;2023-02-19T13:24:34;101686.13;;;13.81;38.27
75543;BME280;64129;53.508;10.476;2023-02-19T13:30:04;101671.06;;;14.54;37.83
75543;BME280;64129;53.508;10.476;2023-02-19T13:35:52;101648.91;;;14.51;37.72
75543;BME280;64129;53.508;10.476;2023-02-19T13:38:22;101657.47;;;14.28;36.92
75543;BME280;64129;53.508;10.476;2023-02-19T13:40:56;101672.13;;;13.28;37.48
75543;BME280;64129;53.508;10.476;2023-02-19T13:45:57;101662.03;;;13.42;38.43
75543;BME280;64129;53.508;10.476;2023-02-19T13:48:29;101662.63;;;13.58;38.48
75543;BME280;64129;53.508;10.476;2023-02-19T13:59:21;101675.06;;;13.99;42.47
75543;BME280;64129;53.508;10.476;2023-02-19T14:14:42;101679.50;;;12.06;41.85
75543;BME280;64129;53.508;10.476;2023-02-19T14:27:48;101699.16;;;14.35;40.08
75543;BME280;64129;53.508;10.476;2023-02-19T14:30:15;101699.38;;;12.95;41.33
75543;BME280;64129;53.508;10.476;2023-02-19T14:32:43;101702.81;;;13.49;41.02
75543;BME280;64129;53.508;10.476;2023-02-19T14:35:20;101686.38;;;13.27;43.66
75543;BME280;64129;53.508;10.476;2023-02-19T14:37:49;101697.22;;;13.15;42.05
75543;BME280;64129;53.508;10.476;2023-02-19T14:40:19;101694.25;;;12.84;44.37
75543;BME280;64129;53.508;10.476;2023-02-19T14:42:50;101689.19;;;13.63;42.93
75543;BME280;64129;53.508;10.476;2023-02-19T14:45:19;101693.53;;;13.25;41.51
75543;BME280;64129;53.508;10.476;2023-02-19T14:47:46;101693.81;;;11.99;43.18
75543;BME280;64129;53.508;10.476;2023-02-19T14:50:27;101679.97;;;12.34;44.85
75543;BME280;64129;53.508;10.476;2023-02-19T14:52:57;101674.63;;;13.36;42.75